Ευχαριστούμε που συμβάλλετε στη διατήρηση της σελίδας μας.

Thank you for your donations, it really helps to maintain the page.


Meteo Stats And More









Fire Weather Index (FWI)

Kastelokampos Rion more information Kastelokampos Rion


Romanos Cam more information Romanos Cam


Thunder radar more information blitzortung!


Rain radar more information rain snow radar


Visit our other weather sites:

Meteopatras.Eu in
Euweather NetworkMeteopatras.Eu in Euweather Network

Weather CloudWeather Cloud

PWS WeatherPWS Weather

Awekas NetWeather data from station Patra-Ketx

WunderGroundWeather data from station Patra-Ketx




Provided and Supervised by : Moulas Andreas

 Patra, Greece - Latitude : 38°14'21" N - Longitude : 21°45'5" E - Altitude : 56m

Nearby METAR Reports

   
LGRX - Araxos
Updated: 30-10-2020 08:50
Few Clouds  
Few Clouds  
   Wind: Calm
Wind: Calm
Temperature: 16°C
Dew Point: 15°C
Humidity: 94%
Barometer: 1019 hPa
Clouds: Few Clouds
Visibility: More than 10 km
Cloud details: Few Clouds 1800 ft
LGRX 300650Z 00000KT 9999 FEW018 16/15 Q1019
LGAD - Andravida
Updated: 30-10-2020 08:50
Partly Cloudy  
Partly Cloudy  
   Wind: varies 5.6 km/h
Wind: varies 5.6 km/h
Temperature: 19°C
Dew Point: 14°C
Humidity: 73%
Barometer: 1019 hPa
Clouds: Partly Cloudy
Visibility: More than 10 km
Cloud details: Partly Cloudy 2000 ft
LGAD 300650Z VRB03KT 9999 SCT020 19/14 Q1019
LGZA - Zakinthos
Updated: 30-10-2020 08:50
Few Clouds  
Few Clouds  
   Wind: NNW 7.4 km/h
Wind: NNW 7.4 km/h
Temperature: 18°C
Dew Point: 13°C
Humidity: 73%
Barometer: 1019 hPa
Clouds: Few Clouds
Visibility: More than 10 km
Cloud details: Few Clouds 1600 ft
LGZA 300650Z 33004KT 9999 FEW016 18/13 Q1019
LGKF - Kefallinia
Updated: 30-10-2020 08:50
Few Clouds  
Few Clouds  
   Wind: North 13 km/h
Wind: North 13 km/h
Temperature: 19°C
Dew Point: 18°C
Humidity: 94%
Barometer: 1019 hPa
Clouds: Few Clouds
Visibility: More than 10 km
Cloud details: Few Clouds 1500 ft
LGKF 300650Z 35007KT 9999 FEW015 19/18 Q1019
LGPZ - Preveza
Updated: 30-10-2020 08:50
Few Clouds  
Few Clouds  
   Wind: NE 7.4 km/h
Wind: NE 7.4 km/h
Temperature: 16°C
Dew Point: 14°C
Humidity: 88%
Barometer: 1020 hPa
Clouds: Few Clouds
Visibility: More than 10 km
Cloud details: Few Clouds 2000 ft
LGPZ 300650Z 05004KT 9999 FEW020 16/14 Q1020
LGKL - Kalamata
Updated: 30-10-2020 08:50
Few Clouds  
Few Clouds  
   Wind: NNW 7.4 km/h
Wind: NNW 7.4 km/h
Temperature: 16°C
Dew Point: 14°C
Humidity: 88%
Barometer: 1019 hPa
Clouds: Few Clouds
Visibility: More than 10 km
Cloud details: Few Clouds 2500 ft
LGKL 300650Z 34004KT 9999 FEW025 16/14 Q1019
LGKR - Kerkyra
Updated: 30-10-2020 08:50
Few Clouds  
Few Clouds  
   Wind: Calm
Wind: Calm
Temperature: 16°C
Dew Point: 13°C
Humidity: 83%
Barometer: 1019 hPa
Clouds: Few Clouds
Visibility: More than 10 km
Cloud details: Few Clouds 2500 ft
LGKR 300650Z 00000KT 9999 FEW025 16/13 Q1019 NOSIG
LGIO - Iwannina
Updated: 30-10-2020 07:50
Fog, Overcast  
Fog, Overcast  
   Wind: Calm
Wind: Calm
Temperature: 8°C
Dew Point: 8°C
Humidity: 100%
Barometer: 1021 hPa
Clouds: Overcast
Visibility: 0 km
Cloud details: Overcast 200 ft
LGIO 300550Z 00000KT 0100 FG VV002 08/08 Q1021
LGPZ - Leykada
Updated: 30-10-2020 08:50
Few Clouds  
Few Clouds  
   Wind: NE 7.4 km/h
Wind: NE 7.4 km/h
Temperature: 16°C
Dew Point: 14°C
Humidity: 88%
Barometer: 1020 hPa
Clouds: Few Clouds
Visibility: More than 10 km
Cloud details: Few Clouds 2000 ft
LGPZ 300650Z 05004KT 9999 FEW020 16/14 Q1020
LGEL - Elefsina
Updated: 30-10-2020 08:50
Few Clouds  
Few Clouds  
   Wind: Calm
Wind: Calm
Temperature: 19°C
Dew Point: 13°C
Humidity: 68%
Barometer: 1017 hPa
Clouds: Few Clouds
Visibility: More than 10 km
Cloud details: Few Clouds 2500 ft
LGEL 300650Z 00000KT 9999 FEW025 19/13 Q1017
LGKC - Kythira
Updated: 30-10-2020 08:50
Few Clouds  
Few Clouds  
   Wind: WNW 9.3 km/h
Wind: WNW 9.3 km/h
Temperature: 16°C
Dew Point: 15°C
Humidity: 94%
Barometer: 1019 hPa
Clouds: Few Clouds
Visibility: More than 10 km
Cloud details: Few Clouds 2500 ft
LGKC 300650Z 30005KT 9999 FEW025 16/15 Q1019
LGIR - Hraklio
Updated: 30-10-2020 08:50
Few Clouds  
Few Clouds  
   Wind: SW 9.3 km/h
Wind: SW 9.3 km/h
Temperature: 21°C
Dew Point: 16°C
Humidity: 73%
Barometer: 1018 hPa
Clouds: Few Clouds
Visibility: More than 10 km
Cloud details: Few Clouds 2500 ft
LGIR 300650Z 23005KT 9999 FEW025 21/16 Q1018 NOSIG

Script developed by  Saratoga-weather.org Adapted for the template by  Weerstation Leuven

You find our weather info also at:

European Weather Network

WeatherCloud

Weather Underground

Hellas Meteo Network

AWEKAS

HAMweather, WeatherForYou, PWS Weather

MeteoPatras.Eu